createdAt,value
2023-04-11T00:00:33.291Z,99512.69
2023-04-11T00:03:02.761Z,99513.72
2023-04-11T00:05:32.341Z,99519.44
2023-04-11T00:08:00.745Z,99505.00
2023-04-11T00:10:29.998Z,99506.50
2023-04-11T00:12:57.953Z,99499.91
2023-04-11T00:15:26.957Z,99492.22
2023-04-11T00:17:55.142Z,99484.63
2023-04-11T00:20:23.182Z,99485.09
2023-04-11T00:22:53.979Z,99475.66
2023-04-11T00:25:21.968Z,99460.84
2023-04-11T00:27:49.891Z,99457.16
2023-04-11T00:30:17.821Z,99461.22
2023-04-11T00:32:46.754Z,99462.72
2023-04-11T00:35:14.737Z,99465.88
2023-04-11T00:37:44.438Z,99463.19
2023-04-11T00:40:17.781Z,99456.81
2023-04-11T00:42:45.742Z,99458.09
2023-04-11T00:45:14.120Z,99458.84
2023-04-11T00:47:42.267Z,99455.13
2023-04-11T00:50:14.108Z,99453.47
2023-04-11T00:52:42.295Z,99451.78
2023-04-11T00:55:10.909Z,99454.13
2023-04-11T00:57:41.973Z,99455.31
2023-04-11T01:00:11.794Z,99461.69
2023-04-11T01:02:43.444Z,99454.75
2023-04-11T01:05:12.211Z,99461.78
2023-04-11T01:07:42.387Z,99447.59
2023-04-11T01:10:10.902Z,99444.53
2023-04-11T01:12:40.294Z,99454.09
2023-04-11T01:15:08.782Z,99449.28
2023-04-11T01:17:36.767Z,99446.69
2023-04-11T01:20:07.786Z,99441.31
2023-04-11T01:22:35.954Z,99440.75
2023-04-11T01:25:05.940Z,99434.53
2023-04-11T01:27:34.684Z,99428.69
2023-04-11T01:30:02.609Z,99430.63
2023-04-11T01:32:30.572Z,99428.31
2023-04-11T01:34:58.523Z,99427.66
2023-04-11T01:37:26.481Z,99420.72
2023-04-11T01:39:54.444Z,99422.78
2023-04-11T01:42:23.847Z,99410.63
2023-04-11T01:44:52.089Z,99399.91
2023-04-11T01:47:20.025Z,99399.91
2023-04-11T01:49:48.015Z,99394.28
2023-04-11T01:52:15.936Z,99396.38
2023-04-11T01:54:43.879Z,99398.06
2023-04-11T01:57:11.812Z,99393.44
2023-04-11T01:59:41.123Z,99394.16
2023-04-11T02:02:09.054Z,99399.16
2023-04-11T02:04:37.031Z,99399.50
2023-04-11T02:07:04.997Z,99395.38
2023-04-11T02:09:32.976Z,99384.81
2023-04-11T02:12:01.018Z,99391.53
2023-04-11T02:14:29.931Z,99394.06
2023-04-11T02:16:59.262Z,99406.09
2023-04-11T02:19:27.423Z,99400.25
2023-04-11T02:21:55.394Z,99395.53
2023-04-11T02:24:23.371Z,99409.03
2023-04-11T02:26:51.335Z,99408.97
2023-04-11T02:29:19.292Z,99398.94
2023-04-11T02:31:49.576Z,99395.25
2023-04-11T02:34:19.012Z,99396.19
2023-04-11T02:36:46.928Z,99394.31
2023-04-11T02:39:14.901Z,99396.81
2023-04-11T02:41:43.042Z,99388.59
2023-04-11T02:44:11.642Z,99399.41
2023-04-11T02:46:39.729Z,99399.66
2023-04-11T02:49:07.697Z,99407.19
2023-04-11T02:51:37.062Z,99394.88
2023-04-11T02:54:05.225Z,99391.94
2023-04-11T02:56:34.989Z,99399.25
2023-04-11T02:59:02.948Z,99383.41
2023-04-11T03:01:30.950Z,99389.16
2023-04-11T03:03:58.938Z,99397.28
2023-04-11T03:06:28.230Z,99392.19
2023-04-11T03:08:57.712Z,99391.75
2023-04-11T03:11:25.866Z,99391.03
2023-04-11T03:13:53.825Z,99390.31
2023-04-11T03:16:21.892Z,99399.66
2023-04-11T03:18:49.926Z,99396.22
2023-04-11T03:21:17.926Z,99403.91
2023-04-11T03:23:45.856Z,99395.50
2023-04-11T03:26:15.922Z,99393.81
2023-04-11T03:28:43.851Z,99393.06
2023-04-11T03:31:13.203Z,99387.34
2023-04-11T03:33:41.143Z,99379.94
2023-04-11T03:36:09.795Z,99371.22
2023-04-11T03:38:37.734Z,99369.56
2023-04-11T03:41:06.077Z,99362.44
2023-04-11T03:43:35.374Z,99361.59
2023-04-11T03:46:03.298Z,99368.91
2023-04-11T03:48:31.282Z,99360.22
2023-04-11T03:50:59.218Z,99341.22
2023-04-11T03:53:27.148Z,99331.53
2023-04-11T03:55:55.250Z,99333.81
2023-04-11T03:58:23.180Z,99319.75
2023-04-11T04:00:52.486Z,99328.34
2023-04-11T04:03:20.713Z,99322.88
2023-04-11T04:05:48.860Z,99310.31
2023-04-11T04:08:16.812Z,99311.97
2023-04-11T04:10:45.062Z,99312.91
2023-04-11T04:13:12.996Z,99310.38
2023-04-11T04:15:40.908Z,99306.41
2023-04-11T04:18:10.405Z,99319.94
2023-04-11T04:20:38.295Z,99319.09
2023-04-11T04:23:06.265Z,99320.13
2023-04-11T04:25:34.181Z,99315.75
2023-04-11T04:28:02.146Z,99308.38
2023-04-11T04:30:30.186Z,99308.19
2023-04-11T04:32:59.101Z,99297.53
2023-04-11T04:35:28.805Z,99301.41
2023-04-11T04:37:56.880Z,99301.41
2023-04-11T04:40:26.164Z,99310.13
2023-04-11T04:42:58.685Z,99299.41
2023-04-11T04:45:26.915Z,99297.72
2023-04-11T04:47:54.895Z,99293.66
2023-04-11T04:50:22.889Z,99290.69
2023-04-11T04:52:52.192Z,99287.91
2023-04-11T04:55:20.101Z,99290.59
2023-04-11T04:57:48.016Z,99283.84
2023-04-11T05:00:16.826Z,99293.75
2023-04-11T05:02:45.043Z,99277.47
2023-04-11T05:05:14.017Z,99288.31
2023-04-11T05:07:42.572Z,99288.31
2023-04-11T05:10:12.196Z,99285.53
2023-04-11T05:12:40.160Z,99285.13
2023-04-11T05:15:11.646Z,99288.56
2023-04-11T05:17:39.623Z,99274.41
2023-04-11T05:20:09.166Z,99277.75
2023-04-11T05:22:37.973Z,99273.69
2023-04-11T05:25:08.886Z,99277.56
2023-04-11T05:27:38.199Z,99276.16
2023-04-11T05:30:07.327Z,99270.69
2023-04-11T05:32:35.296Z,99270.25
2023-04-11T05:35:03.575Z,99271.44
2023-04-11T05:37:32.379Z,99270.31
2023-04-11T05:40:00.478Z,99269.50
2023-04-11T05:42:28.499Z,99269.66
2023-04-11T05:44:57.855Z,99263.34
2023-04-11T05:47:26.086Z,99252.31
2023-04-11T05:49:54.064Z,99259.88
2023-04-11T05:52:22.256Z,99260.25
2023-04-11T05:54:50.153Z,99243.59
2023-04-11T05:57:18.204Z,99255.88
2023-04-11T05:59:49.848Z,99242.94
2023-04-11T06:02:19.354Z,99244.53
2023-04-11T06:04:47.554Z,99250.22
2023-04-11T06:07:15.545Z,99250.94
2023-04-11T06:09:44.280Z,99239.44
2023-04-11T06:12:12.279Z,99239.31
2023-04-11T06:14:40.711Z,99231.34
2023-04-11T06:17:09.636Z,99242.69
2023-04-11T06:19:39.374Z,99235.69
2023-04-11T06:22:07.301Z,99225.53
2023-04-11T06:24:39.020Z,99238.38
2023-04-11T06:27:09.349Z,99234.47
2023-04-11T06:29:37.286Z,99237.47
2023-04-11T06:32:05.581Z,99237.97
2023-04-11T06:34:33.551Z,99235.88
2023-04-11T06:37:02.856Z,99224.22
2023-04-11T06:39:31.354Z,99240.19
2023-04-11T06:41:59.354Z,99229.63
2023-04-11T06:44:27.301Z,99232.66
2023-04-11T06:46:55.417Z,99224.06
2023-04-11T06:49:24.093Z,99222.88
2023-04-11T06:51:52.111Z,99210.88
2023-04-11T06:54:21.454Z,99225.81
2023-04-11T06:56:50.729Z,99217.50
2023-04-11T06:59:19.657Z,99218.13
2023-04-11T07:01:47.784Z,99223.28
2023-04-11T07:04:15.892Z,99218.97
2023-04-11T07:06:43.897Z,99226.22
2023-04-11T07:09:12.648Z,99226.22
2023-04-11T07:11:41.943Z,99220.38
2023-04-11T07:14:09.917Z,99235.16
2023-04-11T07:16:37.976Z,99232.34
2023-04-11T07:19:06.559Z,99233.13
2023-04-11T07:21:34.771Z,99215.94
2023-04-11T07:24:03.133Z,99204.63
2023-04-11T07:26:32.729Z,99204.41
2023-04-11T07:29:02.219Z,99197.19
2023-04-11T07:31:30.999Z,99190.94
2023-04-11T07:33:59.118Z,99182.28
2023-04-11T07:36:27.666Z,99178.53
2023-04-11T07:38:55.602Z,99188.47
2023-04-11T07:41:23.539Z,99193.06
2023-04-11T07:43:51.624Z,99198.66
2023-04-11T07:46:21.036Z,99215.66
2023-04-11T07:48:49.019Z,99212.94
2023-04-11T07:51:18.136Z,99211.47
2023-04-11T07:53:46.167Z,99230.16
2023-04-11T07:56:14.383Z,99236.78
2023-04-11T07:58:42.353Z,99233.03
2023-04-11T08:01:22.685Z,99231.56
2023-04-11T08:03:50.943Z,99228.84
2023-04-11T08:06:18.973Z,99231.03
2023-04-11T08:08:47.590Z,99226.50
2023-04-11T08:11:15.593Z,99227.09
2023-04-11T08:13:43.682Z,99222.13
2023-04-11T08:16:12.377Z,99203.84
2023-04-11T08:18:42.671Z,99213.06
2023-04-11T08:21:12.225Z,99218.06
2023-04-11T08:23:42.303Z,99222.19
2023-04-11T08:26:11.966Z,99226.38
2023-04-11T08:28:42.481Z,99225.59
2023-04-11T08:31:13.437Z,99219.06
2023-04-11T08:33:43.039Z,99206.41
2023-04-11T08:36:11.860Z,99208.97
2023-04-11T08:38:40.150Z,99201.31
2023-04-11T08:41:08.258Z,99194.31
2023-04-11T08:43:36.295Z,99187.66
2023-04-11T08:46:04.976Z,99171.88
2023-04-11T08:48:33.063Z,99171.88
2023-04-11T08:51:02.765Z,99154.88
2023-04-11T08:53:30.743Z,99154.03
2023-04-11T08:55:59.915Z,99154.47
2023-04-11T08:58:27.963Z,99150.94
2023-04-11T09:00:56.010Z,99151.13
2023-04-11T09:03:24.187Z,99153.97
2023-04-11T09:05:52.301Z,99138.22
2023-04-11T09:08:21.596Z,99143.19
2023-04-11T09:10:49.570Z,99134.06
2023-04-11T09:13:22.414Z,99130.72
2023-04-11T09:15:53.096Z,99136.50
2023-04-11T09:18:33.063Z,99135.09
2023-04-11T09:21:01.493Z,99133.63
2023-04-11T09:23:30.825Z,99118.50
2023-04-11T09:25:58.757Z,99117.44
2023-04-11T09:28:26.720Z,99120.72
2023-04-11T09:30:56.047Z,99111.41
2023-04-11T09:33:24.642Z,99108.94
2023-04-11T09:35:53.589Z,99102.47
2023-04-11T09:38:32.968Z,99091.28
2023-04-11T09:41:01.700Z,99090.41
2023-04-11T09:43:29.721Z,99094.19
2023-04-11T09:46:10.733Z,99083.69
2023-04-11T09:48:46.409Z,99071.66
2023-04-11T09:51:27.604Z,99063.22
2023-04-11T09:54:05.213Z,99058.75
2023-04-11T09:56:35.234Z,99046.34
2023-04-11T09:59:03.782Z,99017.69
2023-04-11T10:01:31.789Z,99037.56
2023-04-11T10:04:01.005Z,99029.81
2023-04-11T10:06:33.929Z,99027.34
2023-04-11T10:09:09.657Z,99016.03
2023-04-11T10:11:37.834Z,99005.63
2023-04-11T10:14:05.755Z,99027.81
2023-04-11T10:16:34.523Z,99020.94
2023-04-11T10:19:24.499Z,99013.47
2023-04-11T10:21:52.584Z,99009.13
2023-04-11T10:24:22.865Z,98997.56
2023-04-11T10:26:52.130Z,98999.13
2023-04-11T10:29:50.748Z,98996.13
2023-04-11T10:32:23.610Z,98987.94
2023-04-11T10:35:25.292Z,98981.19
2023-04-11T10:37:53.261Z,98987.19
2023-04-11T10:40:22.975Z,98981.03
2023-04-11T10:42:51.578Z,98976.38
2023-04-11T10:45:24.637Z,98974.28
2023-04-11T10:48:11.586Z,98987.22
2023-04-11T10:50:42.270Z,98969.16
2023-04-11T10:53:14.381Z,98964.22
2023-04-11T10:55:48.125Z,98962.69
2023-04-11T10:58:19.492Z,98957.19
2023-04-11T11:01:26.509Z,98945.78
2023-04-11T11:04:04.645Z,98950.69
2023-04-11T11:06:32.989Z,98954.88
2023-04-11T11:09:01.791Z,98938.97
2023-04-11T11:11:31.238Z,98948.88
2023-04-11T11:14:00.346Z,98933.69
2023-04-11T11:16:28.283Z,98937.78
2023-04-11T11:18:58.403Z,98939.53
2023-04-11T11:21:28.628Z,98940.72
2023-04-11T11:23:58.086Z,98933.50
2023-04-11T11:26:38.289Z,98933.19
2023-04-11T11:29:06.294Z,98929.75
2023-04-11T11:31:39.386Z,98922.00
2023-04-11T11:34:22.665Z,98919.38
2023-04-11T11:36:52.819Z,98908.19
2023-04-11T11:39:22.128Z,98905.19
2023-04-11T11:41:53.446Z,98897.69
2023-04-11T11:44:24.892Z,98904.25
2023-04-11T11:47:02.765Z,98898.09
2023-04-11T11:49:44.494Z,98894.56
2023-04-11T11:52:12.790Z,98895.50
2023-04-11T11:54:47.222Z,98897.88
2023-04-11T11:57:23.665Z,98897.09
2023-04-11T11:59:55.288Z,98903.75
2023-04-11T12:02:23.714Z,98893.16
2023-04-11T12:04:51.913Z,98894.78
2023-04-11T12:07:22.253Z,98894.38
2023-04-11T12:09:51.156Z,98888.69
2023-04-11T12:12:19.075Z,98883.25
2023-04-11T12:14:54.967Z,98878.09
2023-04-11T12:17:22.964Z,98872.16
2023-04-11T12:19:50.886Z,98866.19
2023-04-11T12:22:18.823Z,98854.72
2023-04-11T12:24:46.811Z,98855.25
2023-04-11T12:27:14.780Z,98847.47
2023-04-11T12:29:42.693Z,98844.03
2023-04-11T12:32:11.997Z,98836.44
2023-04-11T12:34:39.946Z,98829.16
2023-04-11T12:37:07.929Z,98823.47
2023-04-11T12:39:35.948Z,98809.56
2023-04-11T12:42:03.951Z,98819.00
2023-04-11T12:44:31.914Z,98810.59
2023-04-11T12:46:59.958Z,98802.47
2023-04-11T12:49:29.410Z,98801.47
2023-04-11T12:51:57.315Z,98798.94
2023-04-11T12:54:26.026Z,98803.13
2023-04-11T12:56:53.987Z,98797.09
2023-04-11T12:59:22.084Z,98797.66
2023-04-11T13:01:50.112Z,98795.03
2023-04-11T13:04:18.190Z,98812.16
2023-04-11T13:06:48.327Z,98821.44
2023-04-11T13:09:16.272Z,98801.78
2023-04-11T13:11:44.215Z,98797.97
2023-04-11T13:14:12.182Z,98801.47
2023-04-11T13:16:40.214Z,98790.53
2023-04-11T13:19:08.215Z,98784.47
2023-04-11T13:21:37.379Z,98779.28
2023-04-11T13:24:07.401Z,98775.31
2023-04-11T13:26:35.339Z,98768.59
2023-04-11T13:29:03.268Z,98761.22
2023-04-11T13:31:31.427Z,98765.53
2023-04-11T13:33:59.411Z,98760.09
2023-04-11T13:36:28.181Z,98756.06
2023-04-11T13:38:56.443Z,98759.44
2023-04-11T13:41:26.127Z,98752.47
2023-04-11T13:43:54.090Z,98767.31
2023-04-11T13:46:23.280Z,98750.25
2023-04-11T13:48:51.266Z,98747.31
2023-04-11T13:51:19.254Z,98746.13
2023-04-11T13:53:47.209Z,98742.16
2023-04-11T13:56:15.165Z,98742.66
2023-04-11T13:58:44.573Z,98733.72
2023-04-11T14:01:12.622Z,98741.97
2023-04-11T14:03:42.947Z,98742.44
2023-04-11T14:06:11.150Z,98732.19
2023-04-11T14:08:39.218Z,98731.13
2023-04-11T14:11:07.528Z,98737.00
2023-04-11T14:13:35.775Z,98727.13
2023-04-11T14:16:09.280Z,98735.63
2023-04-11T14:18:37.688Z,98729.16
2023-04-11T14:21:07.378Z,98737.84
2023-04-11T14:23:35.367Z,98742.00
2023-04-11T14:26:03.379Z,98746.34
2023-04-11T14:28:31.713Z,98749.13
2023-04-11T14:30:59.764Z,98752.56
2023-04-11T14:33:29.554Z,98750.34
2023-04-11T14:35:57.578Z,98763.38
2023-04-11T14:38:25.480Z,98769.28
2023-04-11T14:40:53.400Z,98791.28
2023-04-11T14:43:21.374Z,98787.16
2023-04-11T14:45:49.343Z,98775.09
2023-04-11T14:48:17.406Z,98766.44
2023-04-11T14:50:46.790Z,98761.69
2023-04-11T14:53:14.779Z,98760.09
2023-04-11T14:55:44.532Z,98758.50
2023-04-11T14:58:12.709Z,98763.50
2023-04-11T15:00:41.019Z,98754.72
2023-04-11T15:03:09.054Z,98753.47
2023-04-11T15:05:37.071Z,98753.81
2023-04-11T15:08:06.423Z,98753.97
2023-04-11T15:10:34.492Z,98767.91
2023-04-11T15:13:02.863Z,98756.50
2023-04-11T15:15:30.956Z,98756.84
2023-04-11T15:18:21.660Z,98762.13
2023-04-11T15:20:49.699Z,98754.63
2023-04-11T15:23:19.272Z,98759.78
2023-04-11T15:25:47.732Z,98751.47
2023-04-11T15:28:15.706Z,98765.16
2023-04-11T15:30:47.978Z,98767.25
2023-04-11T15:33:16.604Z,98755.69
2023-04-11T15:35:45.088Z,98761.84
2023-04-11T15:38:13.457Z,98757.34
2023-04-11T15:40:43.069Z,98749.59
2023-04-11T15:43:11.650Z,98740.69
2023-04-11T15:45:40.235Z,98743.59
2023-04-11T15:48:08.242Z,98738.00
2023-04-11T15:50:36.192Z,98732.00
2023-04-11T15:53:04.095Z,98740.47
2023-04-11T15:55:33.079Z,98739.72
2023-04-11T15:58:02.382Z,98739.50
2023-04-11T16:00:30.357Z,98738.22
2023-04-11T16:03:02.973Z,98736.19
2023-04-11T16:05:31.951Z,98729.56
2023-04-11T16:07:59.923Z,98736.63
2023-04-11T16:10:28.012Z,98736.34
2023-04-11T16:12:56.289Z,98730.09
2023-04-11T16:15:25.641Z,98733.22
2023-04-11T16:17:53.599Z,98738.03
2023-04-11T16:20:21.778Z,98737.34
2023-04-11T16:22:49.738Z,98724.91
2023-04-11T16:25:21.011Z,98724.72
2023-04-11T16:27:51.152Z,98723.66
2023-04-11T16:30:19.160Z,98723.66
2023-04-11T16:32:48.625Z,98726.34
2023-04-11T16:35:16.682Z,98719.56
2023-04-11T16:37:44.727Z,98719.56
2023-04-11T16:40:13.123Z,98734.91
2023-04-11T16:42:41.295Z,98735.31
2023-04-11T16:45:09.810Z,98736.56
2023-04-11T16:47:37.840Z,98743.81
2023-04-11T16:50:08.315Z,98742.16
2023-04-11T16:52:36.241Z,98739.47
2023-04-11T16:55:04.257Z,98735.16
2023-04-11T16:57:33.424Z,98736.78
2023-04-11T17:00:06.719Z,98738.28
2023-04-11T17:02:34.883Z,98737.66
2023-04-11T17:05:03.846Z,98735.38
2023-04-11T17:07:33.358Z,98742.03
2023-04-11T17:10:01.387Z,98742.47
2023-04-11T17:12:30.054Z,98751.63
2023-04-11T17:14:59.420Z,98748.09
2023-04-11T17:17:27.363Z,98756.38
2023-04-11T17:19:55.592Z,98761.16
2023-04-11T17:22:23.524Z,98773.41
2023-04-11T17:24:52.906Z,98776.69
2023-04-11T17:27:20.950Z,98771.50
2023-04-11T17:29:48.868Z,98767.41
2023-04-11T17:32:16.900Z,98773.81
2023-04-11T17:34:44.845Z,98778.41
2023-04-11T17:37:12.840Z,98774.50
2023-04-11T17:39:41.573Z,98771.59
2023-04-11T17:42:13.731Z,98780.91
2023-04-11T17:44:41.681Z,98783.00
2023-04-11T17:47:09.613Z,98784.88
2023-04-11T17:49:37.572Z,98794.41
2023-04-11T17:52:05.526Z,98802.69
2023-04-11T17:54:34.040Z,98800.22
2023-04-11T17:57:03.233Z,98787.81
2023-04-11T17:59:32.711Z,98781.19
2023-04-11T18:02:01.005Z,98791.13
2023-04-11T18:04:29.131Z,98785.75
2023-04-11T18:06:58.287Z,98784.91
2023-04-11T18:09:31.753Z,98792.75
2023-04-11T18:12:00.497Z,98788.63
2023-04-11T18:14:28.760Z,98784.91
2023-04-11T18:16:58.082Z,98793.38
2023-04-11T18:19:26.085Z,98784.91
2023-04-11T18:21:54.093Z,98792.16
2023-04-11T18:24:22.021Z,98807.22
2023-04-11T18:26:50.065Z,98806.59
2023-04-11T18:29:18.015Z,98803.91
2023-04-11T18:31:46.026Z,98802.28
2023-04-11T18:34:15.600Z,98805.56
2023-04-11T18:36:44.204Z,98812.16
2023-04-11T18:39:12.856Z,98805.56
2023-04-11T18:41:40.969Z,98805.13
2023-04-11T18:44:10.075Z,98797.69
2023-04-11T18:46:38.447Z,98805.56
2023-04-11T18:49:07.578Z,98807.63
2023-04-11T18:51:38.033Z,98805.13
2023-04-11T18:54:06.145Z,98805.06
2023-04-11T18:56:35.345Z,98813.97
2023-04-11T18:59:06.883Z,98811.28
2023-04-11T19:01:37.163Z,98802.19
2023-04-11T19:04:05.931Z,98800.97
2023-04-11T19:06:34.174Z,98803.84
2023-04-11T19:09:03.978Z,98800.97
2023-04-11T19:11:32.259Z,98797.66
2023-04-11T19:14:01.441Z,98810.44
2023-04-11T19:16:30.103Z,98814.41
2023-04-11T19:18:59.138Z,98809.03
2023-04-11T19:21:27.137Z,98807.81
2023-04-11T19:23:56.649Z,98807.81
2023-04-11T19:26:27.484Z,98812.16
2023-04-11T19:28:55.590Z,98794.38
2023-04-11T19:31:25.732Z,98788.16
2023-04-11T19:33:54.541Z,98792.72
2023-04-11T19:36:23.486Z,98802.19
2023-04-11T19:38:51.436Z,98802.63
2023-04-11T19:41:20.482Z,98799.69
2023-04-11T19:43:49.791Z,98798.03
2023-04-11T19:46:17.896Z,98790.22
2023-04-11T19:48:45.915Z,98790.63
2023-04-11T19:51:14.025Z,98788.13
2023-04-11T19:53:42.009Z,98791.41
2023-04-11T19:56:10.895Z,98790.50
2023-04-11T19:58:39.996Z,98789.25
2023-04-11T20:01:09.803Z,98785.53
2023-04-11T20:03:37.970Z,98793.00
2023-04-11T20:06:06.355Z,98788.47
2023-04-11T20:08:36.613Z,98791.75
2023-04-11T20:11:05.658Z,98798.38
2023-04-11T20:13:34.050Z,98799.69
2023-04-11T20:16:04.745Z,98792.66
2023-04-11T20:18:35.116Z,98788.94
2023-04-11T20:21:06.211Z,98781.09
2023-04-11T20:23:35.513Z,98781.53
2023-04-11T20:26:03.449Z,98776.97
2023-04-11T20:28:31.593Z,98782.56
2023-04-11T20:31:00.003Z,98781.53
2023-04-11T20:33:28.716Z,98773.47
2023-04-11T20:35:58.235Z,98777.81
2023-04-11T20:38:26.397Z,98780.06
2023-04-11T20:40:54.389Z,98782.16
2023-04-11T20:43:25.310Z,98780.31
2023-04-11T20:45:54.468Z,98775.31
2023-04-11T20:48:22.479Z,98773.28
2023-04-11T20:50:53.589Z,98778.84
2023-04-11T20:53:23.014Z,98766.44
2023-04-11T20:55:51.192Z,98761.28
2023-04-11T20:58:20.953Z,98766.66
2023-04-11T21:00:48.924Z,98766.88
2023-04-11T21:03:16.958Z,98764.19
2023-04-11T21:05:46.712Z,98761.28
2023-04-11T21:08:14.696Z,98763.75
2023-04-11T21:10:44.011Z,98754.84
2023-04-11T21:13:11.923Z,98764.19
2023-04-11T21:15:39.907Z,98749.72
2023-04-11T21:18:08.012Z,98750.13
2023-04-11T21:20:36.021Z,98742.06
2023-04-11T21:23:03.977Z,98748.84
2023-04-11T21:25:32.238Z,98748.47
2023-04-11T21:28:01.544Z,98743.09
2023-04-11T21:30:30.633Z,98745.97
2023-04-11T21:32:58.654Z,98744.31
2023-04-11T21:35:26.909Z,98741.63
2023-04-11T21:37:54.825Z,98749.69
2023-04-11T21:40:22.868Z,98736.88
2023-04-11T21:42:50.893Z,98739.75
2023-04-11T21:45:20.316Z,98741.81
2023-04-11T21:47:48.299Z,98743.06
2023-04-11T21:50:16.464Z,98751.78
2023-04-11T21:52:44.624Z,98747.63
2023-04-11T21:55:12.820Z,98742.66
2023-04-11T21:57:40.842Z,98743.47
2023-04-11T22:00:10.967Z,98733.97
2023-04-11T22:02:40.964Z,98733.53
2023-04-11T22:05:09.952Z,98725.22
2023-04-11T22:07:47.521Z,98731.03
2023-04-11T22:10:15.715Z,98726.25
2023-04-11T22:12:45.841Z,98724.00
2023-04-11T22:15:14.228Z,98724.81
2023-04-11T22:17:50.308Z,98717.38
2023-04-11T22:20:18.753Z,98711.59
2023-04-11T22:22:46.692Z,98715.72
2023-04-11T22:25:15.157Z,98719.84
2023-04-11T22:27:44.630Z,98723.56
2023-04-11T22:30:14.346Z,98719.03
2023-04-11T22:32:43.715Z,98710.56
2023-04-11T22:35:11.825Z,98717.81
2023-04-11T22:37:39.795Z,98712.22
2023-04-11T22:40:11.764Z,98710.56
2023-04-11T22:42:39.941Z,98716.53
2023-04-11T22:45:09.251Z,98708.09
2023-04-11T22:47:38.061Z,98706.03
2023-04-11T22:50:09.483Z,98703.75
2023-04-11T22:52:37.837Z,98703.34
2023-04-11T22:55:07.403Z,98702.97
2023-04-11T22:57:36.897Z,98697.19
2023-04-11T23:00:07.398Z,98700.28
2023-04-11T23:02:35.974Z,98693.22
2023-04-11T23:05:04.786Z,98695.53
2023-04-11T23:07:34.481Z,98690.16
2023-04-11T23:10:05.406Z,98691.81
2023-04-11T23:12:33.485Z,98689.75
2023-04-11T23:15:02.597Z,98689.53
2023-04-11T23:17:30.648Z,98682.72
2023-04-11T23:19:59.645Z,98682.31
2023-04-11T23:22:27.756Z,98677.34
2023-04-11T23:24:57.121Z,98671.16
2023-04-11T23:27:25.145Z,98673.44
2023-04-11T23:29:53.802Z,98669.69
2023-04-11T23:32:22.398Z,98667.41
2023-04-11T23:34:50.430Z,98661.00
2023-04-11T23:37:19.454Z,98666.97
2023-04-11T23:39:47.591Z,98664.09
2023-04-11T23:42:16.942Z,98665.13
2023-04-11T23:44:44.898Z,98649.59
2023-04-11T23:47:12.854Z,98656.81
2023-04-11T23:49:41.136Z,98658.09
2023-04-11T23:52:11.125Z,98650.63
2023-04-11T23:54:39.055Z,98655.41
2023-04-11T23:57:07.210Z,98652.47
2023-04-11T23:59:36.557Z,98642.56
